sensor_id;sensor_type;location;lat;lon;timestamp;P1;P2;P0
60816;PMS5003;51921;51.518;-3.188;2022-12-10T00:00:37;41;40;
60816;PMS5003;51921;51.518;-3.188;2022-12-10T00:03:03;42;39;
60816;PMS5003;51921;51.518;-3.188;2022-12-10T00:05:28;36;35;
60816;PMS5003;51921;51.518;-3.188;2022-12-10T00:07:54;40;36;
60816;PMS5003;51921;51.518;-3.188;2022-12-10T00:10:20;39;32;
60816;PMS5003;51921;51.518;-3.188;2022-12-10T00:12:45;40;34;
60816;PMS5003;51921;51.518;-3.188;2022-12-10T00:15:10;31;31;
60816;PMS5003;51921;51.518;-3.188;2022-12-10T00:17:35;31;28;
60816;PMS5003;51921;51.518;-3.188;2022-12-10T00:20:01;32;29;
60816;PMS5003;51921;51.518;-3.188;2022-12-10T00:22:27;32;30;
60816;PMS5003;51921;51.518;-3.188;2022-12-10T00:24:52;32;32;
60816;PMS5003;51921;51.518;-3.188;2022-12-10T00:27:18;30;29;
60816;PMS5003;51921;51.518;-3.188;2022-12-10T00:29:44;30;29;
60816;PMS5003;51921;51.518;-3.188;2022-12-10T00:32:09;33;32;
60816;PMS5003;51921;51.518;-3.188;2022-12-10T00:34:34;37;32;
60816;PMS5003;51921;51.518;-3.188;2022-12-10T00:37:00;37;35;
60816;PMS5003;51921;51.518;-3.188;2022-12-10T00:39:25;31;30;
60816;PMS5003;51921;51.518;-3.188;2022-12-10T00:41:51;35;30;
60816;PMS5003;51921;51.518;-3.188;2022-12-10T00:44:16;30;30;
60816;PMS5003;51921;51.518;-3.188;2022-12-10T00:46:41;36;33;
60816;PMS5003;51921;51.518;-3.188;2022-12-10T00:49:07;36;31;
60816;PMS5003;51921;51.518;-3.188;2022-12-10T00:51:33;33;30;
60816;PMS5003;51921;51.518;-3.188;2022-12-10T00:53:59;34;32;
60816;PMS5003;51921;51.518;-3.188;2022-12-10T00:56:25;35;35;
60816;PMS5003;51921;51.518;-3.188;2022-12-10T00:58:50;37;35;
60816;PMS5003;51921;51.518;-3.188;2022-12-10T01:01:16;32;32;
60816;PMS5003;51921;51.518;-3.188;2022-12-10T01:03:40;32;30;
60816;PMS5003;51921;51.518;-3.188;2022-12-10T01:06:09;28;27;
60816;PMS5003;51921;51.518;-3.188;2022-12-10T01:08:31;28;27;
60816;PMS5003;51921;51.518;-3.188;2022-12-10T01:10:56;28;27;
60816;PMS5003;51921;51.518;-3.188;2022-12-10T01:13:22;32;28;
60816;PMS5003;51921;51.518;-3.188;2022-12-10T01:15:47;30;27;
60816;PMS5003;51921;51.518;-3.188;2022-12-10T01:18:12;28;28;
60816;PMS5003;51921;51.518;-3.188;2022-12-10T01:20:38;22;21;
60816;PMS5003;51921;51.518;-3.188;2022-12-10T01:23:04;25;22;
60816;PMS5003;51921;51.518;-3.188;2022-12-10T01:25:29;26;23;
60816;PMS5003;51921;51.518;-3.188;2022-12-10T01:27:54;28;28;
60816;PMS5003;51921;51.518;-3.188;2022-12-10T01:30:20;26;21;
60816;PMS5003;51921;51.518;-3.188;2022-12-10T01:32:45;24;23;
60816;PMS5003;51921;51.518;-3.188;2022-12-10T01:35:10;24;22;
60816;PMS5003;51921;51.518;-3.188;2022-12-10T01:37:36;27;24;
60816;PMS5003;51921;51.518;-3.188;2022-12-10T01:40:02;23;22;
60816;PMS5003;51921;51.518;-3.188;2022-12-10T01:42:27;31;26;
60816;PMS5003;51921;51.518;-3.188;2022-12-10T01:44:56;25;23;
60816;PMS5003;51921;51.518;-3.188;2022-12-10T01:47:18;27;26;
60816;PMS5003;51921;51.518;-3.188;2022-12-10T01:49:43;26;26;
60816;PMS5003;51921;51.518;-3.188;2022-12-10T01:52:10;24;22;
60816;PMS5003;51921;51.518;-3.188;2022-12-10T01:54:35;28;26;
60816;PMS5003;51921;51.518;-3.188;2022-12-10T01:57:00;28;25;
60816;PMS5003;51921;51.518;-3.188;2022-12-10T01:59:26;28;26;
60816;PMS5003;51921;51.518;-3.188;2022-12-10T02:01:52;31;27;
60816;PMS5003;51921;51.518;-3.188;2022-12-10T02:04:18;26;25;
60816;PMS5003;51921;51.518;-3.188;2022-12-10T02:06:45;28;27;
60816;PMS5003;51921;51.518;-3.188;2022-12-10T02:09:09;28;25;
60816;PMS5003;51921;51.518;-3.188;2022-12-10T02:11:35;32;28;
60816;PMS5003;51921;51.518;-3.188;2022-12-10T02:13:59;26;24;
60816;PMS5003;51921;51.518;-3.188;2022-12-10T02:16:26;29;26;
60816;PMS5003;51921;51.518;-3.188;2022-12-10T02:18:51;29;28;
60816;PMS5003;51921;51.518;-3.188;2022-12-10T02:21:16;23;23;
60816;PMS5003;51921;51.518;-3.188;2022-12-10T02:23:41;37;26;
60816;PMS5003;51921;51.518;-3.188;2022-12-10T02:26:07;29;28;
60816;PMS5003;51921;51.518;-3.188;2022-12-10T02:28:35;34;31;
60816;PMS5003;51921;51.518;-3.188;2022-12-10T02:30:56;26;24;
60816;PMS5003;51921;51.518;-3.188;2022-12-10T02:33:22;26;24;
60816;PMS5003;51921;51.518;-3.188;2022-12-10T02:35:48;26;24;
60816;PMS5003;51921;51.518;-3.188;2022-12-10T02:38:14;24;22;
60816;PMS5003;51921;51.518;-3.188;2022-12-10T02:40:39;24;21;
60816;PMS5003;51921;51.518;-3.188;2022-12-10T02:43:04;21;21;
60816;PMS5003;51921;51.518;-3.188;2022-12-10T02:45:30;23;20;
60816;PMS5003;51921;51.518;-3.188;2022-12-10T02:47:56;20;19;
60816;PMS5003;51921;51.518;-3.188;2022-12-10T02:50:21;22;20;
60816;PMS5003;51921;51.518;-3.188;2022-12-10T02:52:47;23;21;
60816;PMS5003;51921;51.518;-3.188;2022-12-10T02:55:13;21;20;
60816;PMS5003;51921;51.518;-3.188;2022-12-10T02:57:40;20;20;
60816;PMS5003;51921;51.518;-3.188;2022-12-10T03:00:05;21;19;
60816;PMS5003;51921;51.518;-3.188;2022-12-10T03:02:31;25;23;
60816;PMS5003;51921;51.518;-3.188;2022-12-10T03:04:56;20;20;
60816;PMS5003;51921;51.518;-3.188;2022-12-10T03:07:21;25;22;
60816;PMS5003;51921;51.518;-3.188;2022-12-10T03:09:47;24;24;
60816;PMS5003;51921;51.518;-3.188;2022-12-10T03:12:13;23;21;
60816;PMS5003;51921;51.518;-3.188;2022-12-10T03:14:36;22;19;
60816;PMS5003;51921;51.518;-3.188;2022-12-10T03:17:02;25;24;
60816;PMS5003;51921;51.518;-3.188;2022-12-10T03:19:29;24;21;
60816;PMS5003;51921;51.518;-3.188;2022-12-10T03:21:53;27;24;
60816;PMS5003;51921;51.518;-3.188;2022-12-10T03:24:19;25;22;
60816;PMS5003;51921;51.518;-3.188;2022-12-10T03:26:45;20;17;
60816;PMS5003;51921;51.518;-3.188;2022-12-10T03:29:12;27;25;
60816;PMS5003;51921;51.518;-3.188;2022-12-10T03:31:36;29;23;
60816;PMS5003;51921;51.518;-3.188;2022-12-10T03:34:02;23;22;
60816;PMS5003;51921;51.518;-3.188;2022-12-10T03:36:27;25;19;
60816;PMS5003;51921;51.518;-3.188;2022-12-10T03:38:53;22;22;
60816;PMS5003;51921;51.518;-3.188;2022-12-10T03:41:18;22;20;
60816;PMS5003;51921;51.518;-3.188;2022-12-10T03:43:49;24;23;
60816;PMS5003;51921;51.518;-3.188;2022-12-10T03:46:09;24;24;
60816;PMS5003;51921;51.518;-3.188;2022-12-10T03:48:34;21;18;
60816;PMS5003;51921;51.518;-3.188;2022-12-10T03:51:00;23;21;
60816;PMS5003;51921;51.518;-3.188;2022-12-10T03:53:25;25;22;
60816;PMS5003;51921;51.518;-3.188;2022-12-10T03:55:51;23;21;
60816;PMS5003;51921;51.518;-3.188;2022-12-10T03:58:17;24;22;
60816;PMS5003;51921;51.518;-3.188;2022-12-10T04:00:42;24;22;
60816;PMS5003;51921;51.518;-3.188;2022-12-10T04:03:08;23;22;
60816;PMS5003;51921;51.518;-3.188;2022-12-10T04:05:33;19;18;
60816;PMS5003;51921;51.518;-3.188;2022-12-10T04:07:59;23;18;
60816;PMS5003;51921;51.518;-3.188;2022-12-10T04:10:24;20;20;
60816;PMS5003;51921;51.518;-3.188;2022-12-10T04:12:49;24;23;
60816;PMS5003;51921;51.518;-3.188;2022-12-10T04:15:15;25;22;
60816;PMS5003;51921;51.518;-3.188;2022-12-10T04:17:40;20;19;
60816;PMS5003;51921;51.518;-3.188;2022-12-10T04:20:06;22;20;
60816;PMS5003;51921;51.518;-3.188;2022-12-10T04:22:31;18;18;
60816;PMS5003;51921;51.518;-3.188;2022-12-10T04:24:57;19;18;
60816;PMS5003;51921;51.518;-3.188;2022-12-10T04:27:23;19;18;
60816;PMS5003;51921;51.518;-3.188;2022-12-10T04:29:48;19;19;
60816;PMS5003;51921;51.518;-3.188;2022-12-10T04:32:14;26;23;
60816;PMS5003;51921;51.518;-3.188;2022-12-10T04:34:40;22;20;
60816;PMS5003;51921;51.518;-3.188;2022-12-10T04:37:05;18;18;
60816;PMS5003;51921;51.518;-3.188;2022-12-10T04:39:31;24;22;
60816;PMS5003;51921;51.518;-3.188;2022-12-10T04:41:57;20;19;
60816;PMS5003;51921;51.518;-3.188;2022-12-10T04:44:22;23;22;
60816;PMS5003;51921;51.518;-3.188;2022-12-10T04:46:48;23;20;
60816;PMS5003;51921;51.518;-3.188;2022-12-10T04:49:13;25;24;
60816;PMS5003;51921;51.518;-3.188;2022-12-10T04:51:39;26;24;
60816;PMS5003;51921;51.518;-3.188;2022-12-10T04:54:04;30;24;
60816;PMS5003;51921;51.518;-3.188;2022-12-10T04:56:29;19;18;
60816;PMS5003;51921;51.518;-3.188;2022-12-10T04:58:55;25;23;
60816;PMS5003;51921;51.518;-3.188;2022-12-10T05:01:21;32;28;
60816;PMS5003;51921;51.518;-3.188;2022-12-10T05:03:46;22;21;
60816;PMS5003;51921;51.518;-3.188;2022-12-10T05:06:13;20;20;
60816;PMS5003;51921;51.518;-3.188;2022-12-10T05:08:38;21;20;
60816;PMS5003;51921;51.518;-3.188;2022-12-10T05:11:04;23;22;
60816;PMS5003;51921;51.518;-3.188;2022-12-10T05:13:29;20;20;
60816;PMS5003;51921;51.518;-3.188;2022-12-10T05:15:55;26;24;
60816;PMS5003;51921;51.518;-3.188;2022-12-10T05:18:20;27;23;
60816;PMS5003;51921;51.518;-3.188;2022-12-10T05:20:46;24;23;
60816;PMS5003;51921;51.518;-3.188;2022-12-10T05:23:11;24;22;
60816;PMS5003;51921;51.518;-3.188;2022-12-10T05:25:37;21;21;
60816;PMS5003;51921;51.518;-3.188;2022-12-10T05:28:03;24;23;
60816;PMS5003;51921;51.518;-3.188;2022-12-10T05:30:28;23;22;
60816;PMS5003;51921;51.518;-3.188;2022-12-10T05:32:54;22;20;
60816;PMS5003;51921;51.518;-3.188;2022-12-10T05:35:19;24;23;
60816;PMS5003;51921;51.518;-3.188;2022-12-10T05:37:45;25;23;
60816;PMS5003;51921;51.518;-3.188;2022-12-10T05:40:11;20;18;
60816;PMS5003;51921;51.518;-3.188;2022-12-10T05:42:36;22;21;
60816;PMS5003;51921;51.518;-3.188;2022-12-10T05:45:03;21;18;
60816;PMS5003;51921;51.518;-3.188;2022-12-10T05:47:28;19;18;
60816;PMS5003;51921;51.518;-3.188;2022-12-10T05:49:53;20;15;
60816;PMS5003;51921;51.518;-3.188;2022-12-10T05:52:19;23;21;
60816;PMS5003;51921;51.518;-3.188;2022-12-10T05:54:44;22;21;
60816;PMS5003;51921;51.518;-3.188;2022-12-10T05:57:09;18;16;
60816;PMS5003;51921;51.518;-3.188;2022-12-10T05:59:35;18;18;
60816;PMS5003;51921;51.518;-3.188;2022-12-10T06:02:00;20;17;
60816;PMS5003;51921;51.518;-3.188;2022-12-10T06:04:26;20;18;
60816;PMS5003;51921;51.518;-3.188;2022-12-10T06:06:52;18;17;
60816;PMS5003;51921;51.518;-3.188;2022-12-10T06:09:17;17;16;
60816;PMS5003;51921;51.518;-3.188;2022-12-10T06:11:43;18;16;
60816;PMS5003;51921;51.518;-3.188;2022-12-10T06:14:09;22;18;
60816;PMS5003;51921;51.518;-3.188;2022-12-10T06:16:34;17;16;
60816;PMS5003;51921;51.518;-3.188;2022-12-10T06:19:00;22;21;
60816;PMS5003;51921;51.518;-3.188;2022-12-10T06:21:25;16;16;
60816;PMS5003;51921;51.518;-3.188;2022-12-10T06:23:51;15;15;
60816;PMS5003;51921;51.518;-3.188;2022-12-10T06:26:18;19;18;
60816;PMS5003;51921;51.518;-3.188;2022-12-10T06:28:43;19;18;
60816;PMS5003;51921;51.518;-3.188;2022-12-10T06:31:08;17;16;
60816;PMS5003;51921;51.518;-3.188;2022-12-10T06:33:33;17;17;
60816;PMS5003;51921;51.518;-3.188;2022-12-10T06:35:59;18;17;
60816;PMS5003;51921;51.518;-3.188;2022-12-10T06:38:24;19;16;
60816;PMS5003;51921;51.518;-3.188;2022-12-10T06:40:50;18;17;
60816;PMS5003;51921;51.518;-3.188;2022-12-10T06:43:16;18;17;
60816;PMS5003;51921;51.518;-3.188;2022-12-10T06:45:41;18;18;
60816;PMS5003;51921;51.518;-3.188;2022-12-10T06:48:07;18;18;
60816;PMS5003;51921;51.518;-3.188;2022-12-10T06:50:32;18;18;
60816;PMS5003;51921;51.518;-3.188;2022-12-10T06:52:57;17;17;
60816;PMS5003;51921;51.518;-3.188;2022-12-10T06:55:22;20;18;
60816;PMS5003;51921;51.518;-3.188;2022-12-10T06:57:50;19;19;
60816;PMS5003;51921;51.518;-3.188;2022-12-10T07:00:14;18;16;
60816;PMS5003;51921;51.518;-3.188;2022-12-10T07:02:39;18;17;
60816;PMS5003;51921;51.518;-3.188;2022-12-10T07:05:05;19;18;
60816;PMS5003;51921;51.518;-3.188;2022-12-10T07:07:31;16;15;
60816;PMS5003;51921;51.518;-3.188;2022-12-10T07:09:56;12;12;
60816;PMS5003;51921;51.518;-3.188;2022-12-10T07:12:22;14;14;
60816;PMS5003;51921;51.518;-3.188;2022-12-10T07:14:48;12;12;
60816;PMS5003;51921;51.518;-3.188;2022-12-10T07:17:13;12;12;
60816;PMS5003;51921;51.518;-3.188;2022-12-10T07:19:39;13;13;
60816;PMS5003;51921;51.518;-3.188;2022-12-10T07:22:05;12;12;
60816;PMS5003;51921;51.518;-3.188;2022-12-10T07:24:31;12;11;
60816;PMS5003;51921;51.518;-3.188;2022-12-10T07:26:56;14;13;
60816;PMS5003;51921;51.518;-3.188;2022-12-10T07:29:22;11;11;
60816;PMS5003;51921;51.518;-3.188;2022-12-10T07:31:48;13;12;
60816;PMS5003;51921;51.518;-3.188;2022-12-10T07:34:14;12;12;
60816;PMS5003;51921;51.518;-3.188;2022-12-10T07:36:39;11;9;
60816;PMS5003;51921;51.518;-3.188;2022-12-10T07:39:05;11;9;
60816;PMS5003;51921;51.518;-3.188;2022-12-10T07:41:31;12;10;
60816;PMS5003;51921;51.518;-3.188;2022-12-10T07:43:57;12;10;
60816;PMS5003;51921;51.518;-3.188;2022-12-10T07:46:23;14;12;
60816;PMS5003;51921;51.518;-3.188;2022-12-10T07:48:48;12;12;
60816;PMS5003;51921;51.518;-3.188;2022-12-10T07:51:14;14;14;
60816;PMS5003;51921;51.518;-3.188;2022-12-10T07:53:39;14;12;
60816;PMS5003;51921;51.518;-3.188;2022-12-10T07:56:05;14;12;
60816;PMS5003;51921;51.518;-3.188;2022-12-10T07:58:30;16;14;
60816;PMS5003;51921;51.518;-3.188;2022-12-10T08:00:56;14;14;
60816;PMS5003;51921;51.518;-3.188;2022-12-10T08:03:22;13;13;
60816;PMS5003;51921;51.518;-3.188;2022-12-10T08:05:47;15;15;
60816;PMS5003;51921;51.518;-3.188;2022-12-10T08:08:13;18;18;
60816;PMS5003;51921;51.518;-3.188;2022-12-10T08:10:39;16;15;
60816;PMS5003;51921;51.518;-3.188;2022-12-10T08:13:05;15;14;
60816;PMS5003;51921;51.518;-3.188;2022-12-10T08:15:30;15;15;
60816;PMS5003;51921;51.518;-3.188;2022-12-10T08:17:56;18;18;
60816;PMS5003;51921;51.518;-3.188;2022-12-10T08:20:21;19;19;
60816;PMS5003;51921;51.518;-3.188;2022-12-10T08:22:46;17;16;
60816;PMS5003;51921;51.518;-3.188;2022-12-10T08:25:12;22;22;
60816;PMS5003;51921;51.518;-3.188;2022-12-10T08:27:38;21;20;
60816;PMS5003;51921;51.518;-3.188;2022-12-10T08:30:04;20;19;
60816;PMS5003;51921;51.518;-3.188;2022-12-10T08:32:29;19;17;
60816;PMS5003;51921;51.518;-3.188;2022-12-10T08:34:54;18;17;
60816;PMS5003;51921;51.518;-3.188;2022-12-10T08:37:20;17;17;
60816;PMS5003;51921;51.518;-3.188;2022-12-10T08:39:45;20;19;
60816;PMS5003;51921;51.518;-3.188;2022-12-10T08:42:11;20;20;
60816;PMS5003;51921;51.518;-3.188;2022-12-10T08:44:37;20;19;
60816;PMS5003;51921;51.518;-3.188;2022-12-10T08:47:02;24;20;
60816;PMS5003;51921;51.518;-3.188;2022-12-10T08:49:27;21;20;
60816;PMS5003;51921;51.518;-3.188;2022-12-10T08:51:53;25;21;
60816;PMS5003;51921;51.518;-3.188;2022-12-10T08:54:19;23;20;
60816;PMS5003;51921;51.518;-3.188;2022-12-10T08:56:44;23;23;
60816;PMS5003;51921;51.518;-3.188;2022-12-10T08:59:09;28;24;
60816;PMS5003;51921;51.518;-3.188;2022-12-10T09:01:35;25;25;
60816;PMS5003;51921;51.518;-3.188;2022-12-10T09:04:00;37;33;
60816;PMS5003;51921;51.518;-3.188;2022-12-10T09:08:51;39;35;
60816;PMS5003;51921;51.518;-3.188;2022-12-10T09:11:18;28;28;
60816;PMS5003;51921;51.518;-3.188;2022-12-10T09:13:42;34;29;
60816;PMS5003;51921;51.518;-3.188;2022-12-10T09:16:08;36;33;
60816;PMS5003;51921;51.518;-3.188;2022-12-10T09:18:33;33;29;
60816;PMS5003;51921;51.518;-3.188;2022-12-10T09:20:58;29;27;
60816;PMS5003;51921;51.518;-3.188;2022-12-10T09:23:24;29;28;
60816;PMS5003;51921;51.518;-3.188;2022-12-10T09:25:50;26;22;
60816;PMS5003;51921;51.518;-3.188;2022-12-10T09:28:15;28;24;
60816;PMS5003;51921;51.518;-3.188;2022-12-10T09:30:41;29;24;
60816;PMS5003;51921;51.518;-3.188;2022-12-10T09:33:06;22;22;
60816;PMS5003;51921;51.518;-3.188;2022-12-10T09:35:32;27;25;
60816;PMS5003;51921;51.518;-3.188;2022-12-10T09:37:57;25;23;
60816;PMS5003;51921;51.518;-3.188;2022-12-10T09:40:24;29;29;
60816;PMS5003;51921;51.518;-3.188;2022-12-10T09:42:49;41;39;
60816;PMS5003;51921;51.518;-3.188;2022-12-10T09:45:14;31;29;
60816;PMS5003;51921;51.518;-3.188;2022-12-10T09:47:40;28;28;
60816;PMS5003;51921;51.518;-3.188;2022-12-10T09:50:06;33;31;
60816;PMS5003;51921;51.518;-3.188;2022-12-10T09:52:29;32;29;
60816;PMS5003;51921;51.518;-3.188;2022-12-10T09:54:54;31;29;
60816;PMS5003;51921;51.518;-3.188;2022-12-10T09:57:20;28;28;
60816;PMS5003;51921;51.518;-3.188;2022-12-10T09:59:46;32;30;
60816;PMS5003;51921;51.518;-3.188;2022-12-10T10:02:16;30;29;
60816;PMS5003;51921;51.518;-3.188;2022-12-10T10:04:35;34;29;
60816;PMS5003;51921;51.518;-3.188;2022-12-10T10:07:01;35;32;
60816;PMS5003;51921;51.518;-3.188;2022-12-10T10:09:27;67;64;
60816;PMS5003;51921;51.518;-3.188;2022-12-10T10:11:52;41;41;
60816;PMS5003;51921;51.518;-3.188;2022-12-10T10:14:18;36;34;
60816;PMS5003;51921;51.518;-3.188;2022-12-10T10:16:43;36;34;
60816;PMS5003;51921;51.518;-3.188;2022-12-10T10:19:11;38;35;
60816;PMS5003;51921;51.518;-3.188;2022-12-10T10:21:33;43;43;
60816;PMS5003;51921;51.518;-3.188;2022-12-10T10:23:59;39;38;
60816;PMS5003;51921;51.518;-3.188;2022-12-10T10:26:24;49;46;
60816;PMS5003;51921;51.518;-3.188;2022-12-10T10:28:49;39;38;
60816;PMS5003;51921;51.518;-3.188;2022-12-10T10:31:17;55;50;
60816;PMS5003;51921;51.518;-3.188;2022-12-10T10:36:06;80;73;
60816;PMS5003;51921;51.518;-3.188;2022-12-10T10:38:31;101;89;
60816;PMS5003;51921;51.518;-3.188;2022-12-10T10:40:57;70;67;
60816;PMS5003;51921;51.518;-3.188;2022-12-10T10:43:30;59;53;
60816;PMS5003;51921;51.518;-3.188;2022-12-10T10:45:48;48;47;
60816;PMS5003;51921;51.518;-3.188;2022-12-10T10:48:13;54;50;
60816;PMS5003;51921;51.518;-3.188;2022-12-10T10:50:39;58;54;
60816;PMS5003;51921;51.518;-3.188;2022-12-10T10:55:30;50;47;
60816;PMS5003;51921;51.518;-3.188;2022-12-10T10:57:54;48;46;
60816;PMS5003;51921;51.518;-3.188;2022-12-10T11:00:20;44;39;
60816;PMS5003;51921;51.518;-3.188;2022-12-10T11:02:46;36;35;
60816;PMS5003;51921;51.518;-3.188;2022-12-10T11:05:15;42;40;
60816;PMS5003;51921;51.518;-3.188;2022-12-10T11:07:37;96;86;
60816;PMS5003;51921;51.518;-3.188;2022-12-10T11:10:02;80;73;
60816;PMS5003;51921;51.518;-3.188;2022-12-10T11:12:29;45;41;
60816;PMS5003;51921;51.518;-3.188;2022-12-10T11:14:53;51;46;
60816;PMS5003;51921;51.518;-3.188;2022-12-10T11:17:20;25;25;
60816;PMS5003;51921;51.518;-3.188;2022-12-10T11:19:44;30;29;
60816;PMS5003;51921;51.518;-3.188;2022-12-10T11:22:15;26;24;
60816;PMS5003;51921;51.518;-3.188;2022-12-10T11:24:34;19;18;
60816;PMS5003;51921;51.518;-3.188;2022-12-10T11:27:01;19;17;
60816;PMS5003;51921;51.518;-3.188;2022-12-10T11:29:29;24;22;
60816;PMS5003;51921;51.518;-3.188;2022-12-10T11:31:54;19;18;
60816;PMS5003;51921;51.518;-3.188;2022-12-10T11:34:18;13;12;
60816;PMS5003;51921;51.518;-3.188;2022-12-10T11:36:44;17;15;
60816;PMS5003;51921;51.518;-3.188;2022-12-10T11:39:12;15;15;
60816;PMS5003;51921;51.518;-3.188;2022-12-10T11:41:34;17;17;
60816;PMS5003;51921;51.518;-3.188;2022-12-10T11:44:05;19;18;
60816;PMS5003;51921;51.518;-3.188;2022-12-10T11:46:28;11;11;
60816;PMS5003;51921;51.518;-3.188;2022-12-10T11:48:54;8;8;
60816;PMS5003;51921;51.518;-3.188;2022-12-10T11:51:17;9;9;
60816;PMS5003;51921;51.518;-3.188;2022-12-10T11:53:46;10;10;
60816;PMS5003;51921;51.518;-3.188;2022-12-10T11:56:10;13;12;
60816;PMS5003;51921;51.518;-3.188;2022-12-10T11:58:38;17;13;
60816;PMS5003;51921;51.518;-3.188;2022-12-10T12:00:59;12;12;
60816;PMS5003;51921;51.518;-3.188;2022-12-10T12:03:30;8;6;
60816;PMS5003;51921;51.518;-3.188;2022-12-10T12:08:17;7;7;
60816;PMS5003;51921;51.518;-3.188;2022-12-10T12:10:45;10;9;
60816;PMS5003;51921;51.518;-3.188;2022-12-10T12:13:08;9;8;
60816;PMS5003;51921;51.518;-3.188;2022-12-10T12:15:33;8;8;
60816;PMS5003;51921;51.518;-3.188;2022-12-10T12:17:58;14;13;
60816;PMS5003;51921;51.518;-3.188;2022-12-10T12:20:24;15;14;
60816;PMS5003;51921;51.518;-3.188;2022-12-10T12:22:50;12;11;
60816;PMS5003;51921;51.518;-3.188;2022-12-10T12:25:16;13;13;
60816;PMS5003;51921;51.518;-3.188;2022-12-10T12:27:41;14;13;
60816;PMS5003;51921;51.518;-3.188;2022-12-10T12:30:10;9;9;
60816;PMS5003;51921;51.518;-3.188;2022-12-10T12:32:33;9;8;
60816;PMS5003;51921;51.518;-3.188;2022-12-10T12:34:58;10;8;
60816;PMS5003;51921;51.518;-3.188;2022-12-10T12:37:23;7;7;
60816;PMS5003;51921;51.518;-3.188;2022-12-10T12:39:49;8;8;
60816;PMS5003;51921;51.518;-3.188;2022-12-10T12:42:15;13;12;
60816;PMS5003;51921;51.518;-3.188;2022-12-10T12:44:43;16;14;
60816;PMS5003;51921;51.518;-3.188;2022-12-10T12:47:11;5;5;
60816;PMS5003;51921;51.518;-3.188;2022-12-10T12:49:31;5;5;
60816;PMS5003;51921;51.518;-3.188;2022-12-10T12:51:59;7;6;
60816;PMS5003;51921;51.518;-3.188;2022-12-10T12:54:22;6;5;
60816;PMS5003;51921;51.518;-3.188;2022-12-10T12:56:53;5;5;
60816;PMS5003;51921;51.518;-3.188;2022-12-10T12:59:17;4;4;
60816;PMS5003;51921;51.518;-3.188;2022-12-10T13:01:40;4;4;
60816;PMS5003;51921;51.518;-3.188;2022-12-10T13:04:04;4;3;
60816;PMS5003;51921;51.518;-3.188;2022-12-10T13:06:31;4;4;
60816;PMS5003;51921;51.518;-3.188;2022-12-10T13:08:57;4;4;
60816;PMS5003;51921;51.518;-3.188;2022-12-10T13:11:29;7;7;
60816;PMS5003;51921;51.518;-3.188;2022-12-10T13:18:38;8;8;
60816;PMS5003;51921;51.518;-3.188;2022-12-10T13:23:31;7;7;
60816;PMS5003;51921;51.518;-3.188;2022-12-10T13:25:56;9;8;
60816;PMS5003;51921;51.518;-3.188;2022-12-10T13:28:22;10;10;
60816;PMS5003;51921;51.518;-3.188;2022-12-10T13:33:15;17;15;
60816;PMS5003;51921;51.518;-3.188;2022-12-10T13:38:04;12;12;
60816;PMS5003;51921;51.518;-3.188;2022-12-10T13:42:56;14;14;
60816;PMS5003;51921;51.518;-3.188;2022-12-10T13:45:25;12;11;
60816;PMS5003;51921;51.518;-3.188;2022-12-10T13:47:46;10;9;
60816;PMS5003;51921;51.518;-3.188;2022-12-10T13:50:16;11;10;
60816;PMS5003;51921;51.518;-3.188;2022-12-10T13:52:39;11;10;
60816;PMS5003;51921;51.518;-3.188;2022-12-10T13:55:08;13;13;
60816;PMS5003;51921;51.518;-3.188;2022-12-10T13:57:32;10;10;
60816;PMS5003;51921;51.518;-3.188;2022-12-10T13:59:56;11;11;
60816;PMS5003;51921;51.518;-3.188;2022-12-10T14:02:23;12;10;
60816;PMS5003;51921;51.518;-3.188;2022-12-10T14:04:49;9;9;
60816;PMS5003;51921;51.518;-3.188;2022-12-10T14:07:11;10;9;
60816;PMS5003;51921;51.518;-3.188;2022-12-10T14:09:38;22;21;
60816;PMS5003;51921;51.518;-3.188;2022-12-10T14:12:02;14;14;
60816;PMS5003;51921;51.518;-3.188;2022-12-10T14:14:29;10;9;
60816;PMS5003;51921;51.518;-3.188;2022-12-10T14:16:53;11;10;
60816;PMS5003;51921;51.518;-3.188;2022-12-10T14:19:18;12;12;
60816;PMS5003;51921;51.518;-3.188;2022-12-10T14:21:43;16;15;
60816;PMS5003;51921;51.518;-3.188;2022-12-10T14:26:35;19;19;
60816;PMS5003;51921;51.518;-3.188;2022-12-10T14:29:00;18;18;
60816;PMS5003;51921;51.518;-3.188;2022-12-10T14:31:26;18;16;
60816;PMS5003;51921;51.518;-3.188;2022-12-10T14:33:59;22;20;
60816;PMS5003;51921;51.518;-3.188;2022-12-10T14:36:17;16;15;
60816;PMS5003;51921;51.518;-3.188;2022-12-10T14:38:41;16;16;
60816;PMS5003;51921;51.518;-3.188;2022-12-10T14:41:07;25;24;
60816;PMS5003;51921;51.518;-3.188;2022-12-10T14:43:32;19;18;
60816;PMS5003;51921;51.518;-3.188;2022-12-10T14:45:58;18;17;
60816;PMS5003;51921;51.518;-3.188;2022-12-10T14:48:23;21;20;
60816;PMS5003;51921;51.518;-3.188;2022-12-10T14:50:48;20;17;
60816;PMS5003;51921;51.518;-3.188;2022-12-10T14:53:15;14;14;
60816;PMS5003;51921;51.518;-3.188;2022-12-10T14:55:40;22;21;
60816;PMS5003;51921;51.518;-3.188;2022-12-10T14:58:05;15;15;
60816;PMS5003;51921;51.518;-3.188;2022-12-10T15:00:31;18;18;
60816;PMS5003;51921;51.518;-3.188;2022-12-10T15:02:57;23;22;
60816;PMS5003;51921;51.518;-3.188;2022-12-10T15:05:23;36;31;
60816;PMS5003;51921;51.518;-3.188;2022-12-10T15:07:48;33;30;
60816;PMS5003;51921;51.518;-3.188;2022-12-10T15:10:13;34;29;
60816;PMS5003;51921;51.518;-3.188;2022-12-10T15:12:37;34;33;
60816;PMS5003;51921;51.518;-3.188;2022-12-10T15:15:05;32;31;
60816;PMS5003;51921;51.518;-3.188;2022-12-10T15:17:33;30;26;
60816;PMS5003;51921;51.518;-3.188;2022-12-10T15:19:52;25;22;
60816;PMS5003;51921;51.518;-3.188;2022-12-10T15:22:18;28;26;
60816;PMS5003;51921;51.518;-3.188;2022-12-10T15:24:43;24;23;
60816;PMS5003;51921;51.518;-3.188;2022-12-10T15:29:34;30;29;
60816;PMS5003;51921;51.518;-3.188;2022-12-10T15:32:00;26;23;
60816;PMS5003;51921;51.518;-3.188;2022-12-10T15:34:25;29;27;
60816;PMS5003;51921;51.518;-3.188;2022-12-10T15:36:50;36;33;
60816;PMS5003;51921;51.518;-3.188;2022-12-10T15:39:15;36;35;
60816;PMS5003;51921;51.518;-3.188;2022-12-10T15:41:42;32;29;
60816;PMS5003;51921;51.518;-3.188;2022-12-10T15:44:06;35;31;
60816;PMS5003;51921;51.518;-3.188;2022-12-10T15:46:30;38;34;
60816;PMS5003;51921;51.518;-3.188;2022-12-10T15:48:56;31;28;
60816;PMS5003;51921;51.518;-3.188;2022-12-10T15:51:22;37;32;
60816;PMS5003;51921;51.518;-3.188;2022-12-10T15:53:47;40;40;
60816;PMS5003;51921;51.518;-3.188;2022-12-10T15:56:12;41;38;
60816;PMS5003;51921;51.518;-3.188;2022-12-10T15:58:38;50;41;
60816;PMS5003;51921;51.518;-3.188;2022-12-10T16:01:03;47;46;
60816;PMS5003;51921;51.518;-3.188;2022-12-10T16:03:29;59;52;
60816;PMS5003;51921;51.518;-3.188;2022-12-10T16:05:54;50;47;
60816;PMS5003;51921;51.518;-3.188;2022-12-10T16:08:21;36;34;
60816;PMS5003;51921;51.518;-3.188;2022-12-10T16:10:45;38;36;
60816;PMS5003;51921;51.518;-3.188;2022-12-10T16:13:13;31;30;
60816;PMS5003;51921;51.518;-3.188;2022-12-10T16:15:38;26;24;
60816;PMS5003;51921;51.518;-3.188;2022-12-10T16:18:01;26;22;
60816;PMS5003;51921;51.518;-3.188;2022-12-10T16:20:28;28;27;